sensor_id;sensor_type;location;lat;lon;timestamp;P1;durP1;ratioP1;P2;durP2;ratioP2
32824;SDS011;51060;42.640;24.356;2023-02-01T00:01:22;3.67;;;2.53;;
32824;SDS011;51060;42.640;24.356;2023-02-01T00:03:47;10.67;;;7.03;;
32824;SDS011;51060;42.640;24.356;2023-02-01T00:06:13;6.00;;;4.10;;
32824;SDS011;51060;42.640;24.356;2023-02-01T00:08:38;3.60;;;2.20;;
32824;SDS011;51060;42.640;24.356;2023-02-01T00:11:05;3.77;;;2.30;;
32824;SDS011;51060;42.640;24.356;2023-02-01T00:13:33;4.37;;;2.47;;
32824;SDS011;51060;42.640;24.356;2023-02-01T00:16:19;3.47;;;1.90;;
32824;SDS011;51060;42.640;24.356;2023-02-01T00:18:47;2.30;;;1.60;;
32824;SDS011;51060;42.640;24.356;2023-02-01T00:21:16;4.70;;;2.27;;
32824;SDS011;51060;42.640;24.356;2023-02-01T00:23:42;3.03;;;2.10;;
32824;SDS011;51060;42.640;24.356;2023-02-01T00:26:15;3.10;;;1.97;;
32824;SDS011;51060;42.640;24.356;2023-02-01T00:28:42;5.40;;;3.90;;
32824;SDS011;51060;42.640;24.356;2023-02-01T00:31:08;3.30;;;2.20;;
32824;SDS011;51060;42.640;24.356;2023-02-01T00:33:33;2.07;;;1.77;;
32824;SDS011;51060;42.640;24.356;2023-02-01T00:36:00;9.10;;;4.30;;
32824;SDS011;51060;42.640;24.356;2023-02-01T00:38:27;2.53;;;2.00;;
32824;SDS011;51060;42.640;24.356;2023-02-01T00:40:54;3.23;;;1.83;;
32824;SDS011;51060;42.640;24.356;2023-02-01T00:43:21;2.47;;;1.73;;
32824;SDS011;51060;42.640;24.356;2023-02-01T00:45:47;4.50;;;1.80;;
32824;SDS011;51060;42.640;24.356;2023-02-01T00:48:12;2.30;;;2.00;;
32824;SDS011;51060;42.640;24.356;2023-02-01T00:50:44;3.90;;;1.50;;
32824;SDS011;51060;42.640;24.356;2023-02-01T00:53:10;2.73;;;2.10;;
32824;SDS011;51060;42.640;24.356;2023-02-01T00:55:36;2.47;;;2.00;;
32824;SDS011;51060;42.640;24.356;2023-02-01T00:58:02;5.57;;;2.30;;
32824;SDS011;51060;42.640;24.356;2023-02-01T01:00:28;2.20;;;1.70;;
32824;SDS011;51060;42.640;24.356;2023-02-01T01:02:54;4.87;;;2.70;;
32824;SDS011;51060;42.640;24.356;2023-02-01T01:05:20;4.57;;;2.13;;
32824;SDS011;51060;42.640;24.356;2023-02-01T01:07:45;2.13;;;1.90;;
32824;SDS011;51060;42.640;24.356;2023-02-01T01:10:11;3.43;;;1.97;;
32824;SDS011;51060;42.640;24.356;2023-02-01T01:12:36;2.77;;;1.83;;
32824;SDS011;51060;42.640;24.356;2023-02-01T01:15:02;3.03;;;1.90;;
32824;SDS011;51060;42.640;24.356;2023-02-01T01:17:28;2.03;;;1.80;;
32824;SDS011;51060;42.640;24.356;2023-02-01T01:19:53;2.13;;;1.90;;
32824;SDS011;51060;42.640;24.356;2023-02-01T01:22:19;3.17;;;1.63;;
32824;SDS011;51060;42.640;24.356;2023-02-01T01:24:44;3.20;;;1.80;;
32824;SDS011;51060;42.640;24.356;2023-02-01T01:27:10;3.93;;;2.00;;
32824;SDS011;51060;42.640;24.356;2023-02-01T01:29:35;2.97;;;1.90;;
32824;SDS011;51060;42.640;24.356;2023-02-01T01:32:01;2.30;;;2.07;;
32824;SDS011;51060;42.640;24.356;2023-02-01T01:34:27;4.07;;;2.30;;
32824;SDS011;51060;42.640;24.356;2023-02-01T01:36:52;3.30;;;1.90;;
32824;SDS011;51060;42.640;24.356;2023-02-01T01:39:18;3.00;;;2.10;;
32824;SDS011;51060;42.640;24.356;2023-02-01T01:41:43;3.40;;;2.27;;
32824;SDS011;51060;42.640;24.356;2023-02-01T01:47:12;2.40;;;1.83;;
32824;SDS011;51060;42.640;24.356;2023-02-01T01:49:39;4.13;;;2.47;;
32824;SDS011;51060;42.640;24.356;2023-02-01T01:52:05;2.40;;;2.00;;
32824;SDS011;51060;42.640;24.356;2023-02-01T01:54:35;4.07;;;2.20;;
32824;SDS011;51060;42.640;24.356;2023-02-01T01:57:06;3.43;;;2.27;;
32824;SDS011;51060;42.640;24.356;2023-02-01T01:59:35;4.07;;;2.40;;
32824;SDS011;51060;42.640;24.356;2023-02-01T02:02:03;4.13;;;2.90;;
32824;SDS011;51060;42.640;24.356;2023-02-01T02:04:28;6.70;;;3.30;;
32824;SDS011;51060;42.640;24.356;2023-02-01T02:06:54;4.50;;;2.30;;
32824;SDS011;51060;42.640;24.356;2023-02-01T02:09:25;3.87;;;2.60;;
32824;SDS011;51060;42.640;24.356;2023-02-01T02:11:50;4.17;;;2.67;;
32824;SDS011;51060;42.640;24.356;2023-02-01T02:14:16;4.87;;;2.60;;
32824;SDS011;51060;42.640;24.356;2023-02-01T02:27:29;5.80;;;3.40;;
32824;SDS011;51060;42.640;24.356;2023-02-01T02:35:43;3.00;;;2.13;;
32824;SDS011;51060;42.640;24.356;2023-02-01T02:47:10;2.30;;;2.10;;
32824;SDS011;51060;42.640;24.356;2023-02-01T02:53:17;3.30;;;1.63;;
32824;SDS011;51060;42.640;24.356;2023-02-01T02:56:02;1.80;;;1.70;;
32824;SDS011;51060;42.640;24.356;2023-02-01T02:58:47;3.40;;;2.20;;
32824;SDS011;51060;42.640;24.356;2023-02-01T03:01:32;3.20;;;2.20;;
32824;SDS011;51060;42.640;24.356;2023-02-01T03:04:16;2.20;;;1.97;;
32824;SDS011;51060;42.640;24.356;2023-02-01T03:06:43;3.57;;;1.80;;
32824;SDS011;51060;42.640;24.356;2023-02-01T03:09:14;3.23;;;1.97;;
32824;SDS011;51060;42.640;24.356;2023-02-01T03:11:43;4.00;;;2.30;;
32824;SDS011;51060;42.640;24.356;2023-02-01T03:14:29;3.57;;;2.73;;
32824;SDS011;51060;42.640;24.356;2023-02-01T03:17:00;2.90;;;2.33;;
32824;SDS011;51060;42.640;24.356;2023-02-01T03:19:37;3.17;;;1.93;;
32824;SDS011;51060;42.640;24.356;2023-02-01T03:22:14;2.00;;;1.80;;
32824;SDS011;51060;42.640;24.356;2023-02-01T03:24:44;3.93;;;1.80;;
32824;SDS011;51060;42.640;24.356;2023-02-01T03:27:13;8.93;;;5.33;;
32824;SDS011;51060;42.640;24.356;2023-02-01T03:32:15;3.20;;;2.40;;
32824;SDS011;51060;42.640;24.356;2023-02-01T03:34:41;5.93;;;3.93;;
32824;SDS011;51060;42.640;24.356;2023-02-01T03:37:10;7.63;;;5.63;;
32824;SDS011;51060;42.640;24.356;2023-02-01T03:39:50;4.00;;;2.90;;
32824;SDS011;51060;42.640;24.356;2023-02-01T03:43:04;4.17;;;2.50;;
32824;SDS011;51060;42.640;24.356;2023-02-01T03:45:13;4.37;;;3.20;;
32824;SDS011;51060;42.640;24.356;2023-02-01T03:47:41;3.03;;;2.73;;
32824;SDS011;51060;42.640;24.356;2023-02-01T03:50:16;4.43;;;3.17;;
32824;SDS011;51060;42.640;24.356;2023-02-01T03:52:44;7.33;;;5.57;;
32824;SDS011;51060;42.640;24.356;2023-02-01T03:55:13;8.00;;;4.37;;
32824;SDS011;51060;42.640;24.356;2023-02-01T03:57:41;3.27;;;2.90;;
32824;SDS011;51060;42.640;24.356;2023-02-01T04:00:14;3.00;;;2.73;;
32824;SDS011;51060;42.640;24.356;2023-02-01T04:02:42;3.97;;;2.60;;
32824;SDS011;51060;42.640;24.356;2023-02-01T04:05:08;3.67;;;2.30;;
32824;SDS011;51060;42.640;24.356;2023-02-01T04:07:34;4.57;;;2.33;;
32824;SDS011;51060;42.640;24.356;2023-02-01T04:09:59;3.23;;;2.90;;
32824;SDS011;51060;42.640;24.356;2023-02-01T04:12:25;4.03;;;2.60;;
32824;SDS011;51060;42.640;24.356;2023-02-01T04:14:50;2.47;;;2.03;;
32824;SDS011;51060;42.640;24.356;2023-02-01T04:17:16;2.73;;;2.40;;
32824;SDS011;51060;42.640;24.356;2023-02-01T04:19:41;3.93;;;2.37;;
32824;SDS011;51060;42.640;24.356;2023-02-01T04:22:07;7.60;;;3.43;;
32824;SDS011;51060;42.640;24.356;2023-02-01T04:24:32;2.57;;;1.77;;
32824;SDS011;51060;42.640;24.356;2023-02-01T04:26:58;3.57;;;2.20;;
32824;SDS011;51060;42.640;24.356;2023-02-01T04:29:24;2.87;;;2.10;;
32824;SDS011;51060;42.640;24.356;2023-02-01T04:31:49;4.37;;;2.50;;
32824;SDS011;51060;42.640;24.356;2023-02-01T04:34:15;3.77;;;2.23;;
32824;SDS011;51060;42.640;24.356;2023-02-01T04:36:40;5.30;;;2.73;;
32824;SDS011;51060;42.640;24.356;2023-02-01T04:39:06;5.17;;;2.30;;
32824;SDS011;51060;42.640;24.356;2023-02-01T04:41:33;3.07;;;2.20;;
32824;SDS011;51060;42.640;24.356;2023-02-01T04:44:01;3.93;;;2.53;;
32824;SDS011;51060;42.640;24.356;2023-02-01T04:46:26;3.40;;;2.70;;
32824;SDS011;51060;42.640;24.356;2023-02-01T04:48:52;2.97;;;2.27;;
32824;SDS011;51060;42.640;24.356;2023-02-01T04:51:17;2.67;;;2.30;;
32824;SDS011;51060;42.640;24.356;2023-02-01T04:53:44;2.97;;;2.17;;
32824;SDS011;51060;42.640;24.356;2023-02-01T04:56:09;2.97;;;2.23;;
32824;SDS011;51060;42.640;24.356;2023-02-01T04:58:35;2.77;;;2.07;;
32824;SDS011;51060;42.640;24.356;2023-02-01T05:01:04;2.77;;;2.20;;
32824;SDS011;51060;42.640;24.356;2023-02-01T05:03:31;3.27;;;2.30;;
32824;SDS011;51060;42.640;24.356;2023-02-01T05:05:58;3.37;;;2.30;;
32824;SDS011;51060;42.640;24.356;2023-02-01T05:08:24;3.73;;;2.60;;
32824;SDS011;51060;42.640;24.356;2023-02-01T05:10:51;4.27;;;2.50;;
32824;SDS011;51060;42.640;24.356;2023-02-01T05:13:16;5.10;;;3.63;;
32824;SDS011;51060;42.640;24.356;2023-02-01T05:16:00;3.87;;;2.50;;
32824;SDS011;51060;42.640;24.356;2023-02-01T05:18:26;2.93;;;2.37;;
32824;SDS011;51060;42.640;24.356;2023-02-01T05:20:51;4.33;;;2.60;;
32824;SDS011;51060;42.640;24.356;2023-02-01T05:23:17;3.27;;;2.60;;
32824;SDS011;51060;42.640;24.356;2023-02-01T05:25:42;4.30;;;2.67;;
32824;SDS011;51060;42.640;24.356;2023-02-01T05:28:08;4.50;;;3.27;;
32824;SDS011;51060;42.640;24.356;2023-02-01T05:30:34;3.00;;;2.40;;
32824;SDS011;51060;42.640;24.356;2023-02-01T05:33:00;2.83;;;2.30;;
32824;SDS011;51060;42.640;24.356;2023-02-01T05:35:26;4.10;;;2.83;;
32824;SDS011;51060;42.640;24.356;2023-02-01T05:37:52;3.73;;;2.07;;
32824;SDS011;51060;42.640;24.356;2023-02-01T05:40:18;3.83;;;2.73;;
32824;SDS011;51060;42.640;24.356;2023-02-01T05:42:43;2.67;;;2.20;;
32824;SDS011;51060;42.640;24.356;2023-02-01T05:45:09;2.70;;;2.17;;
32824;SDS011;51060;42.640;24.356;2023-02-01T05:47:35;2.83;;;2.23;;
32824;SDS011;51060;42.640;24.356;2023-02-01T05:50:01;3.53;;;2.27;;
32824;SDS011;51060;42.640;24.356;2023-02-01T05:52:26;2.60;;;2.30;;
32824;SDS011;51060;42.640;24.356;2023-02-01T05:54:52;3.20;;;2.47;;
32824;SDS011;51060;42.640;24.356;2023-02-01T05:57:18;2.80;;;2.10;;
32824;SDS011;51060;42.640;24.356;2023-02-01T05:59:43;3.20;;;2.47;;
32824;SDS011;51060;42.640;24.356;2023-02-01T06:02:13;3.20;;;2.90;;
32824;SDS011;51060;42.640;24.356;2023-02-01T06:04:40;2.80;;;2.60;;
32824;SDS011;51060;42.640;24.356;2023-02-01T06:07:07;3.93;;;3.60;;
32824;SDS011;51060;42.640;24.356;2023-02-01T06:09:34;3.37;;;1.97;;
32824;SDS011;51060;42.640;24.356;2023-02-01T06:12:00;2.20;;;2.00;;
32824;SDS011;51060;42.640;24.356;2023-02-01T06:14:26;4.60;;;2.90;;
32824;SDS011;51060;42.640;24.356;2023-02-01T06:16:52;3.07;;;2.30;;
32824;SDS011;51060;42.640;24.356;2023-02-01T06:19:19;3.33;;;2.10;;
32824;SDS011;51060;42.640;24.356;2023-02-01T06:21:45;2.53;;;1.87;;
32824;SDS011;51060;42.640;24.356;2023-02-01T06:24:10;3.23;;;2.70;;
32824;SDS011;51060;42.640;24.356;2023-02-01T06:26:36;3.27;;;2.13;;
32824;SDS011;51060;42.640;24.356;2023-02-01T06:29:02;2.70;;;2.03;;
32824;SDS011;51060;42.640;24.356;2023-02-01T06:31:31;3.40;;;2.80;;
32824;SDS011;51060;42.640;24.356;2023-02-01T06:33:57;4.97;;;2.90;;
32824;SDS011;51060;42.640;24.356;2023-02-01T06:36:25;3.20;;;2.73;;
32824;SDS011;51060;42.640;24.356;2023-02-01T06:38:50;3.80;;;2.57;;
32824;SDS011;51060;42.640;24.356;2023-02-01T06:41:17;4.50;;;3.40;;
32824;SDS011;51060;42.640;24.356;2023-02-01T06:43:45;3.43;;;2.33;;
32824;SDS011;51060;42.640;24.356;2023-02-01T06:46:11;3.47;;;3.00;;
32824;SDS011;51060;42.640;24.356;2023-02-01T06:48:38;3.90;;;2.00;;
32824;SDS011;51060;42.640;24.356;2023-02-01T06:51:03;3.80;;;2.40;;
32824;SDS011;51060;42.640;24.356;2023-02-01T06:53:29;3.83;;;2.00;;
32824;SDS011;51060;42.640;24.356;2023-02-01T06:55:56;4.47;;;2.37;;
32824;SDS011;51060;42.640;24.356;2023-02-01T06:58:29;5.70;;;2.43;;
32824;SDS011;51060;42.640;24.356;2023-02-01T07:00:56;2.60;;;2.40;;
32824;SDS011;51060;42.640;24.356;2023-02-01T07:03:22;4.17;;;3.50;;
32824;SDS011;51060;42.640;24.356;2023-02-01T07:16:50;4.17;;;3.17;;
32824;SDS011;51060;42.640;24.356;2023-02-01T07:19:16;4.97;;;3.17;;
32824;SDS011;51060;42.640;24.356;2023-02-01T07:21:42;3.10;;;2.20;;
32824;SDS011;51060;42.640;24.356;2023-02-01T07:24:07;3.30;;;2.60;;
32824;SDS011;51060;42.640;24.356;2023-02-01T07:26:33;5.10;;;2.87;;
32824;SDS011;51060;42.640;24.356;2023-02-01T07:28:58;3.33;;;2.20;;
32824;SDS011;51060;42.640;24.356;2023-02-01T07:31:24;2.97;;;2.60;;
32824;SDS011;51060;42.640;24.356;2023-02-01T07:33:51;3.83;;;2.77;;
32824;SDS011;51060;42.640;24.356;2023-02-01T07:36:17;3.57;;;2.90;;
32824;SDS011;51060;42.640;24.356;2023-02-01T07:38:43;3.10;;;2.80;;
32824;SDS011;51060;42.640;24.356;2023-02-01T07:41:09;2.77;;;1.93;;
32824;SDS011;51060;42.640;24.356;2023-02-01T07:43:35;3.43;;;2.93;;
32824;SDS011;51060;42.640;24.356;2023-02-01T07:46:02;3.20;;;2.50;;
32824;SDS011;51060;42.640;24.356;2023-02-01T07:48:28;4.17;;;3.00;;
32824;SDS011;51060;42.640;24.356;2023-02-01T07:51:01;3.67;;;3.00;;
32824;SDS011;51060;42.640;24.356;2023-02-01T07:53:28;5.13;;;3.27;;
32824;SDS011;51060;42.640;24.356;2023-02-01T07:55:54;3.60;;;3.07;;
32824;SDS011;51060;42.640;24.356;2023-02-01T07:58:21;5.63;;;3.37;;
32824;SDS011;51060;42.640;24.356;2023-02-01T08:00:47;4.83;;;3.67;;
32824;SDS011;51060;42.640;24.356;2023-02-01T08:03:31;3.03;;;2.07;;
32824;SDS011;51060;42.640;24.356;2023-02-01T08:05:56;4.13;;;2.60;;
32824;SDS011;51060;42.640;24.356;2023-02-01T08:08:22;4.03;;;2.67;;
32824;SDS011;51060;42.640;24.356;2023-02-01T08:10:48;19.27;;;10.83;;
32824;SDS011;51060;42.640;24.356;2023-02-01T08:13:13;4.33;;;2.97;;
32824;SDS011;51060;42.640;24.356;2023-02-01T08:15:39;3.87;;;2.57;;
32824;SDS011;51060;42.640;24.356;2023-02-01T08:18:05;16.90;;;9.63;;
32824;SDS011;51060;42.640;24.356;2023-02-01T08:20:35;3.00;;;2.70;;
32824;SDS011;51060;42.640;24.356;2023-02-01T08:23:01;4.63;;;2.90;;
32824;SDS011;51060;42.640;24.356;2023-02-01T08:25:27;5.33;;;3.70;;
32824;SDS011;51060;42.640;24.356;2023-02-01T08:27:53;3.20;;;2.90;;
32824;SDS011;51060;42.640;24.356;2023-02-01T08:30:19;4.57;;;2.83;;
32824;SDS011;51060;42.640;24.356;2023-02-01T08:32:45;3.83;;;2.77;;
32824;SDS011;51060;42.640;24.356;2023-02-01T08:35:14;6.83;;;5.00;;
32824;SDS011;51060;42.640;24.356;2023-02-01T08:37:40;7.30;;;4.30;;
32824;SDS011;51060;42.640;24.356;2023-02-01T08:40:05;3.67;;;2.80;;
32824;SDS011;51060;42.640;24.356;2023-02-01T08:42:31;6.83;;;4.40;;
32824;SDS011;51060;42.640;24.356;2023-02-01T08:45:16;5.30;;;3.13;;
32824;SDS011;51060;42.640;24.356;2023-02-01T08:47:49;3.10;;;2.13;;
32824;SDS011;51060;42.640;24.356;2023-02-01T08:50:16;4.40;;;2.90;;
32824;SDS011;51060;42.640;24.356;2023-02-01T08:52:42;2.57;;;2.37;;
32824;SDS011;51060;42.640;24.356;2023-02-01T08:55:08;5.07;;;3.60;;
32824;SDS011;51060;42.640;24.356;2023-02-01T08:57:34;4.67;;;4.17;;
32824;SDS011;51060;42.640;24.356;2023-02-01T09:00:04;4.47;;;3.00;;
32824;SDS011;51060;42.640;24.356;2023-02-01T09:02:31;2.57;;;1.90;;
32824;SDS011;51060;42.640;24.356;2023-02-01T09:04:56;2.10;;;1.90;;
32824;SDS011;51060;42.640;24.356;2023-02-01T09:07:22;3.07;;;2.07;;
32824;SDS011;51060;42.640;24.356;2023-02-01T09:09:48;2.17;;;1.63;;
32824;SDS011;51060;42.640;24.356;2023-02-01T09:12:13;2.77;;;2.27;;
32824;SDS011;51060;42.640;24.356;2023-02-01T09:14:42;3.10;;;2.10;;
32824;SDS011;51060;42.640;24.356;2023-02-01T09:17:08;3.13;;;2.30;;
32824;SDS011;51060;42.640;24.356;2023-02-01T09:19:33;2.57;;;2.33;;
32824;SDS011;51060;42.640;24.356;2023-02-01T09:21:59;2.20;;;2.00;;
32824;SDS011;51060;42.640;24.356;2023-02-01T09:24:24;2.63;;;2.10;;
32824;SDS011;51060;42.640;24.356;2023-02-01T09:26:50;2.60;;;2.40;;
32824;SDS011;51060;42.640;24.356;2023-02-01T09:29:16;2.87;;;2.37;;
32824;SDS011;51060;42.640;24.356;2023-02-01T09:31:42;2.80;;;2.00;;
32824;SDS011;51060;42.640;24.356;2023-02-01T09:34:08;3.17;;;2.30;;
32824;SDS011;51060;42.640;24.356;2023-02-01T09:36:33;2.97;;;2.17;;
32824;SDS011;51060;42.640;24.356;2023-02-01T09:38:59;2.47;;;2.20;;
32824;SDS011;51060;42.640;24.356;2023-02-01T09:47:12;3.53;;;2.83;;
32824;SDS011;51060;42.640;24.356;2023-02-01T09:49:42;5.80;;;3.47;;
32824;SDS011;51060;42.640;24.356;2023-02-01T09:52:13;4.87;;;3.10;;
32824;SDS011;51060;42.640;24.356;2023-02-01T09:54:42;3.20;;;2.70;;
32824;SDS011;51060;42.640;24.356;2023-02-01T09:57:48;4.63;;;3.10;;
32824;SDS011;51060;42.640;24.356;2023-02-01T10:00:44;2.97;;;2.30;;
32824;SDS011;51060;42.640;24.356;2023-02-01T10:03:03;3.33;;;2.90;;
32824;SDS011;51060;42.640;24.356;2023-02-01T10:08:33;4.97;;;3.37;;
32824;SDS011;51060;42.640;24.356;2023-02-01T10:25:26;3.67;;;2.67;;
32824;SDS011;51060;42.640;24.356;2023-02-01T10:27:57;3.10;;;2.50;;
32824;SDS011;51060;42.640;24.356;2023-02-01T10:30:26;3.60;;;2.20;;
32824;SDS011;51060;42.640;24.356;2023-02-01T10:32:57;4.07;;;3.20;;
32824;SDS011;51060;42.640;24.356;2023-02-01T10:35:33;3.30;;;2.30;;
32824;SDS011;51060;42.640;24.356;2023-02-01T10:38:01;4.00;;;2.53;;
32824;SDS011;51060;42.640;24.356;2023-02-01T10:40:27;3.63;;;2.77;;
32824;SDS011;51060;42.640;24.356;2023-02-01T10:42:54;5.00;;;3.67;;
32824;SDS011;51060;42.640;24.356;2023-02-01T10:45:24;3.37;;;2.27;;
32824;SDS011;51060;42.640;24.356;2023-02-01T10:47:52;4.37;;;3.60;;
32824;SDS011;51060;42.640;24.356;2023-02-01T10:53:01;5.93;;;3.70;;
32824;SDS011;51060;42.640;24.356;2023-02-01T10:55:36;5.37;;;3.30;;
32824;SDS011;51060;42.640;24.356;2023-02-01T10:58:07;3.07;;;2.60;;
32824;SDS011;51060;42.640;24.356;2023-02-01T11:01:23;3.83;;;2.10;;
32824;SDS011;51060;42.640;24.356;2023-02-01T11:08:54;3.87;;;2.90;;
32824;SDS011;51060;42.640;24.356;2023-02-01T11:14:32;3.97;;;3.10;;
32824;SDS011;51060;42.640;24.356;2023-02-01T11:17:01;3.60;;;2.50;;
32824;SDS011;51060;42.640;24.356;2023-02-01T11:20:03;3.77;;;2.43;;
32824;SDS011;51060;42.640;24.356;2023-02-01T11:22:31;4.13;;;2.63;;
32824;SDS011;51060;42.640;24.356;2023-02-01T11:24:58;4.60;;;2.40;;
32824;SDS011;51060;42.640;24.356;2023-02-01T11:27:24;4.20;;;2.90;;
32824;SDS011;51060;42.640;24.356;2023-02-01T11:29:51;4.33;;;2.50;;
32824;SDS011;51060;42.640;24.356;2023-02-01T11:32:19;4.20;;;3.13;;
32824;SDS011;51060;42.640;24.356;2023-02-01T11:34:46;3.40;;;2.93;;
32824;SDS011;51060;42.640;24.356;2023-02-01T11:42:24;3.33;;;2.50;;
32824;SDS011;51060;42.640;24.356;2023-02-01T11:44:50;6.70;;;3.93;;
32824;SDS011;51060;42.640;24.356;2023-02-01T11:47:38;4.57;;;3.00;;
32824;SDS011;51060;42.640;24.356;2023-02-01T11:50:17;5.10;;;2.67;;
32824;SDS011;51060;42.640;24.356;2023-02-01T12:06:28;2.70;;;2.50;;
32824;SDS011;51060;42.640;24.356;2023-02-01T12:09:03;3.23;;;2.20;;
32824;SDS011;51060;42.640;24.356;2023-02-01T12:14:01;3.03;;;2.37;;
32824;SDS011;51060;42.640;24.356;2023-02-01T12:16:41;2.30;;;2.10;;
32824;SDS011;51060;42.640;24.356;2023-02-01T12:22:13;5.40;;;2.13;;
32824;SDS011;51060;42.640;24.356;2023-02-01T12:24:53;3.17;;;2.37;;
32824;SDS011;51060;42.640;24.356;2023-02-01T12:27:50;4.93;;;3.30;;
32824;SDS011;51060;42.640;24.356;2023-02-01T12:43:56;2.57;;;2.37;;
32824;SDS011;51060;42.640;24.356;2023-02-01T12:46:30;4.57;;;2.80;;
32824;SDS011;51060;42.640;24.356;2023-02-01T12:51:46;3.17;;;2.77;;
32824;SDS011;51060;42.640;24.356;2023-02-01T12:57:01;3.17;;;2.47;;
32824;SDS011;51060;42.640;24.356;2023-02-01T12:59:44;12.57;;;9.03;;
32824;SDS011;51060;42.640;24.356;2023-02-01T13:05:12;7.93;;;5.40;;
32824;SDS011;51060;42.640;24.356;2023-02-01T13:07:45;5.63;;;3.63;;
32824;SDS011;51060;42.640;24.356;2023-02-01T13:10:18;3.20;;;2.70;;
32824;SDS011;51060;42.640;24.356;2023-02-01T13:16:06;2.50;;;2.30;;
32824;SDS011;51060;42.640;24.356;2023-02-01T13:18:37;4.73;;;3.33;;
32824;SDS011;51060;42.640;24.356;2023-02-01T13:21:05;4.90;;;3.47;;
32824;SDS011;51060;42.640;24.356;2023-02-01T13:23:35;2.73;;;2.40;;
32824;SDS011;51060;42.640;24.356;2023-02-01T13:26:04;2.73;;;2.53;;
32824;SDS011;51060;42.640;24.356;2023-02-01T13:33:52;3.67;;;2.57;;
32824;SDS011;51060;42.640;24.356;2023-02-01T13:41:55;3.77;;;2.23;;
32824;SDS011;51060;42.640;24.356;2023-02-01T13:46:51;2.87;;;2.50;;
32824;SDS011;51060;42.640;24.356;2023-02-01T13:49:21;4.23;;;3.30;;
32824;SDS011;51060;42.640;24.356;2023-02-01T13:51:49;4.93;;;3.13;;
32824;SDS011;51060;42.640;24.356;2023-02-01T13:56:53;2.37;;;2.17;;
32824;SDS011;51060;42.640;24.356;2023-02-01T14:10:59;3.30;;;2.50;;
32824;SDS011;51060;42.640;24.356;2023-02-01T14:21:25;4.83;;;2.60;;
32824;SDS011;51060;42.640;24.356;2023-02-01T14:24:02;3.00;;;2.30;;
32824;SDS011;51060;42.640;24.356;2023-02-01T14:44:51;2.43;;;2.23;;
32824;SDS011;51060;42.640;24.356;2023-02-01T14:49:53;2.23;;;1.97;;
32824;SDS011;51060;42.640;24.356;2023-02-01T14:52:46;5.63;;;3.40;;
32824;SDS011;51060;42.640;24.356;2023-02-01T14:55:18;49.83;;;22.83;;
32824;SDS011;51060;42.640;24.356;2023-02-01T14:57:48;29.37;;;17.67;;
32824;SDS011;51060;42.640;24.356;2023-02-01T15:00:33;7.57;;;5.33;;
32824;SDS011;51060;42.640;24.356;2023-02-01T15:11:55;3.97;;;3.17;;
32824;SDS011;51060;42.640;24.356;2023-02-01T15:14:27;5.77;;;3.83;;
32824;SDS011;51060;42.640;24.356;2023-02-01T15:16:54;7.37;;;5.40;;
32824;SDS011;51060;42.640;24.356;2023-02-01T15:19:24;1.93;;;1.70;;
32824;SDS011;51060;42.640;24.356;2023-02-01T15:21:51;6.60;;;4.80;;
32824;SDS011;51060;42.640;24.356;2023-02-01T15:24:20;2.47;;;1.90;;
32824;SDS011;51060;42.640;24.356;2023-02-01T15:26:45;8.23;;;5.33;;
32824;SDS011;51060;42.640;24.356;2023-02-01T15:29:12;5.47;;;3.23;;
32824;SDS011;51060;42.640;24.356;2023-02-01T15:31:39;8.93;;;4.83;;
32824;SDS011;51060;42.640;24.356;2023-02-01T15:34:07;12.60;;;7.00;;
32824;SDS011;51060;42.640;24.356;2023-02-01T15:36:33;9.90;;;4.80;;
32824;SDS011;51060;42.640;24.356;2023-02-01T15:39:13;13.90;;;7.43;;
32824;SDS011;51060;42.640;24.356;2023-02-01T15:41:51;6.17;;;3.13;;
32824;SDS011;51060;42.640;24.356;2023-02-01T15:44:20;8.80;;;5.77;;
32824;SDS011;51060;42.640;24.356;2023-02-01T15:46:54;10.47;;;6.97;;
32824;SDS011;51060;42.640;24.356;2023-02-01T15:49:30;10.80;;;7.13;;
32824;SDS011;51060;42.640;24.356;2023-02-01T15:51:58;9.00;;;5.67;;
32824;SDS011;51060;42.640;24.356;2023-02-01T15:54:26;6.60;;;4.63;;
32824;SDS011;51060;42.640;24.356;2023-02-01T15:56:56;7.10;;;5.40;;
32824;SDS011;51060;42.640;24.356;2023-02-01T15:59:31;7.43;;;5.00;;
32824;SDS011;51060;42.640;24.356;2023-02-01T16:02:00;7.37;;;5.60;;
32824;SDS011;51060;42.640;24.356;2023-02-01T16:04:26;6.63;;;4.70;;
32824;SDS011;51060;42.640;24.356;2023-02-01T16:09:22;8.73;;;6.37;;
32824;SDS011;51060;42.640;24.356;2023-02-01T16:11:57;12.90;;;10.23;;
32824;SDS011;51060;42.640;24.356;2023-02-01T16:14:26;10.73;;;7.73;;
32824;SDS011;51060;42.640;24.356;2023-02-01T16:16:55;10.13;;;7.70;;
32824;SDS011;51060;42.640;24.356;2023-02-01T16:19:22;4.33;;;3.73;;
32824;SDS011;51060;42.640;24.356;2023-02-01T16:21:53;5.90;;;4.33;;
32824;SDS011;51060;42.640;24.356;2023-02-01T16:24:19;5.10;;;3.80;;
32824;SDS011;51060;42.640;24.356;2023-02-01T16:26:47;10.77;;;6.77;;
32824;SDS011;51060;42.640;24.356;2023-02-01T16:29:12;17.80;;;10.90;;
32824;SDS011;51060;42.640;24.356;2023-02-01T16:31:40;5.13;;;4.53;;
32824;SDS011;51060;42.640;24.356;2023-02-01T16:34:06;4.03;;;3.13;;
32824;SDS011;51060;42.640;24.356;2023-02-01T16:36:42;6.20;;;4.60;;
32824;SDS011;51060;42.640;24.356;2023-02-01T16:39:10;3.90;;;2.80;;
32824;SDS011;51060;42.640;24.356;2023-02-01T16:41:36;8.30;;;4.50;;
32824;SDS011;51060;42.640;24.356;2023-02-01T16:44:04;5.20;;;3.83;;
32824;SDS011;51060;42.640;24.356;2023-02-01T16:46:32;7.90;;;5.13;;
32824;SDS011;51060;42.640;24.356;2023-02-01T16:48:59;6.90;;;5.07;;
32824;SDS011;51060;42.640;24.356;2023-02-01T16:51:25;5.77;;;2.77;;
32824;SDS011;51060;42.640;24.356;2023-02-01T16:53:52;4.07;;;2.70;;
32824;SDS011;51060;42.640;24.356;2023-02-01T16:56:22;4.13;;;2.73;;
32824;SDS011;51060;42.640;24.356;2023-02-01T16:58:50;3.57;;;2.43;;
32824;SDS011;51060;42.640;24.356;2023-02-01T17:01:16;5.07;;;3.10;;
32824;SDS011;51060;42.640;24.356;2023-02-01T17:03:43;5.17;;;3.13;;
32824;SDS011;51060;42.640;24.356;2023-02-01T17:06:11;3.83;;;3.43;;
32824;SDS011;51060;42.640;24.356;2023-02-01T17:08:39;4.23;;;3.57;;
32824;SDS011;51060;42.640;24.356;2023-02-01T17:11:07;6.07;;;3.40;;
32824;SDS011;51060;42.640;24.356;2023-02-01T17:13:33;3.73;;;3.00;;
32824;SDS011;51060;42.640;24.356;2023-02-01T17:18:32;3.63;;;3.00;;
32824;SDS011;51060;42.640;24.356;2023-02-01T17:20:59;8.50;;;5.03;;
32824;SDS011;51060;42.640;24.356;2023-02-01T17:23:26;13.07;;;7.57;;
32824;SDS011;51060;42.640;24.356;2023-02-01T17:25:53;16.07;;;9.03;;
32824;SDS011;51060;42.640;24.356;2023-02-01T17:28:19;26.83;;;13.00;;
32824;SDS011;51060;42.640;24.356;2023-02-01T17:30:45;22.77;;;12.70;;
32824;SDS011;51060;42.640;24.356;2023-02-01T17:33:15;27.20;;;15.23;;
32824;SDS011;51060;42.640;24.356;2023-02-01T17:35:45;31.50;;;20.67;;
32824;SDS011;51060;42.640;24.356;2023-02-01T17:38:12;14.50;;;10.80;;
32824;SDS011;51060;42.640;24.356;2023-02-01T17:40:38;12.23;;;8.37;;
32824;SDS011;51060;42.640;24.356;2023-02-01T17:43:03;11.93;;;8.93;;
32824;SDS011;51060;42.640;24.356;2023-02-01T17:45:36;8.03;;;6.90;;
32824;SDS011;51060;42.640;24.356;2023-02-01T17:48:05;9.30;;;7.03;;
32824;SDS011;51060;42.640;24.356;2023-02-01T17:50:33;9.00;;;7.60;;
32824;SDS011;51060;42.640;24.356;2023-02-01T17:53:00;10.57;;;9.43;;
32824;SDS011;51060;42.640;24.356;2023-02-01T17:55:27;17.90;;;12.97;;
32824;SDS011;51060;42.640;24.356;2023-02-01T17:57:53;20.27;;;16.00;;
32824;SDS011;51060;42.640;24.356;2023-02-01T18:00:19;13.83;;;11.80;;
32824;SDS011;51060;42.640;24.356;2023-02-01T18:02:45;10.63;;;9.60;;